Terminal Aerodrome Forecast
Issued by NWS

Home | Current Version | Previous Version | Text Only | Print | Product List | Glossary On
Versions: 1 2 3 4 5 6 7 8 9 10 11 12 13 14 15 16
000
FTPA31 PHFO 261128
TAFHLI
TAF
PHLI 261128Z 2612/2712 06014KT 6SM -SHRA SCT015 BKN020 BKN040
      TEMPO 2612/2616 3SM SHRA BR
     FM262000 06014G22KT P6SM VCSH SCT020 BKN045=

USA.gov is the U.S. government's official web portal to all federal, state and local government web resources and services.